Svanen — LKXK — position and weather

sailwx.info

Track history (hours):
 
Tides and Currents Weather Stations Pressure Air Temp Water Temp Dewpoint Dewpoint Depression Visibility Wind Speed Wind Dir Waves Ship Positions

Svanen (Norway)

Ship's website: http://www.svanen.no/english/english.php1

Last reported at 2014-Jul-29 12:33 UTC. Time now 2014-Jul-29 12:53 UTC.
Position N 59°05' E 010°22'.

Length 27 m.

Type: Sailing vessel. MMSI: 259173000.

Date/timePositionNaut miles runAvg speedWind from/ knotsBaromVisibWave heightAir tempDewpointWater temp
2014-Jul-29 12:33N 59°05' E 010°22'5 5.5
2014-Jul-29 11:33N 59°10' E 010°24'5 4.8
2014-Jul-29 10:33N 59°14' E 010°30'6 6.0
2014-Jul-29 09:33N 59°20' E 010°32'7 7.0
2014-Jul-29 08:33N 59°27' E 010°29'1 0.1
2014-Jul-28 21:33N 59°26' E 010°29'0 0.0
2014-Jul-28 18:21N 59°26' E 010°29'0 0.0
2014-Jul-28 17:10N 59°26' E 010°29'0 0.3
2014-Jul-28 15:33N 59°26' E 010°29'6 5.7
2014-Jul-28 14:33N 59°31' E 010°34'22 5.6
2014-Jul-28 10:32N 59°53' E 010°40'1 1.4
2014-Jul-28 09:27N 59°54' E 010°42'0 0.0
2014-Jul-28 08:30N 59°54' E 010°42'0 0.0
2014-Jul-28 07:24N 59°54' E 010°42'0 0.0
2014-Jul-28 06:33N 59°54' E 010°42'0 0.0
2014-Jul-28 05:33N 59°54' E 010°42'0 0.0
2014-Jul-28 04:33N 59°54' E 010°42'0 0.0
2014-Jul-28 03:18N 59°54' E 010°42'0 0.0
2014-Jul-28 02:30N 59°54' E 010°42'0 0.0
2014-Jul-28 01:30N 59°54' E 010°42'0 0.0
2014-Jul-28 00:24N 59°54' E 010°42'0 0.0
2014-Jul-27 23:30N 59°54' E 010°42'0 0.0
2014-Jul-27 22:30N 59°54' E 010°42'0 0.0
2014-Jul-27 21:33N 59°54' E 010°42'0 0.0
2014-Jul-27 20:33N 59°54' E 010°42'0 0.0
2014-Jul-27 19:33N 59°54' E 010°42'0 0.0
2014-Jul-27 18:33N 59°54' E 010°42'0 0.0
2014-Jul-27 17:21N 59°54' E 010°42'0 0.0
2014-Jul-27 16:33N 59°54' E 010°42'0 0.0
2014-Jul-27 15:27N 59°54' E 010°42'0 0.0
2014-Jul-27 14:33N 59°54' E 010°42'0 0.0
2014-Jul-27 13:06N 59°54' E 010°42'0 0.0
2014-Jul-27 12:33N 59°54' E 010°42'0 0.0
2014-Jul-27 11:33N 59°54' E 010°42'0 0.0
2014-Jul-27 10:27N 59°54' E 010°42'0 0.0
2014-Jul-27 09:18N 59°54' E 010°42'0 0.0
2014-Jul-27 08:24N 59°54' E 010°42'0 0.0
2014-Jul-27 06:21N 59°54' E 010°42'0 0.0
2014-Jul-27 05:33N 59°54' E 010°42'0 0.0
2014-Jul-27 04:15N 59°54' E 010°42'0 0.0
2014-Jul-27 03:30N 59°54' E 010°42'0 0.0
2014-Jul-27 02:27N 59°54' E 010°42'0 0.0
2014-Jul-27 01:30N 59°54' E 010°42'0 0.0
2014-Jul-27 00:30N 59°54' E 010°42'0 0.0
2014-Jul-26 23:24N 59°54' E 010°42'0 0.0
2014-Jul-26 22:33N 59°54' E 010°42'0 0.0
2014-Jul-26 21:33N 59°54' E 010°42'0 0.0
2014-Jul-26 20:21N 59°54' E 010°42'0 0.0
2014-Jul-26 19:27N 59°54' E 010°42'0 0.0
2014-Jul-26 18:33N 59°54' E 010°42'0 0.0
2014-Jul-26 17:27N 59°54' E 010°42'0 0.0
2014-Jul-26 16:33N 59°54' E 010°42'0 0.0
2014-Jul-26 15:33N 59°54' E 010°42'0 0.0
2014-Jul-26 14:30N 59°54' E 010°42'0 0.0
2014-Jul-26 13:33N 59°54' E 010°42'0 0.0
2014-Jul-26 12:21N 59°54' E 010°42'0 0.0
2014-Jul-26 11:24N 59°54' E 010°42'0 0.0
2014-Jul-26 10:33N 59°54' E 010°42'0 0.0
2014-Jul-26 09:27N 59°54' E 010°42'0 0.0
2014-Jul-26 08:09N 59°54' E 010°42'0 0.0
2014-Jul-26 07:33N 59°54' E 010°42'0 0.0
2014-Jul-26 06:30N 59°54' E 010°42'0 0.0
2014-Jul-26 05:34N 59°54' E 010°42'0 0.0
2014-Jul-26 04:30N 59°54' E 010°42'0 0.0
2014-Jul-26 03:34N 59°54' E 010°42'0 0.0
2014-Jul-26 02:21N 59°54' E 010°42'0 0.0
2014-Jul-26 01:27N 59°54' E 010°42'0 0.0
2014-Jul-26 00:33N 59°54' E 010°42'0 0.0
2014-Jul-25 23:30N 59°54' E 010°42'0 0.0
2014-Jul-25 22:27N 59°54' E 010°42'0 0.0
2014-Jul-25 21:15N 59°54' E 010°42'0 0.0
2014-Jul-25 20:30N 59°54' E 010°42'0 0.0
2014-Jul-25 19:33N 59°54' E 010°42'0 0.0
2014-Jul-25 18:24N 59°54' E 010°42'0 0.0
2014-Jul-25 17:21N 59°54' E 010°42'0 0.0
2014-Jul-25 16:30N 59°54' E 010°42'0 0.0
2014-Jul-25 15:33N 59°54' E 010°42'0 0.0
2014-Jul-25 14:33N 59°54' E 010°42'0 0.0
2014-Jul-25 13:33N 59°54' E 010°42'0 0.0
2014-Jul-25 12:27N 59°54' E 010°42'0 0.0
2014-Jul-25 11:12N 59°54' E 010°42'0 0.0
2014-Jul-25 10:30N 59°54' E 010°42'0 0.0
2014-Jul-25 09:27N 59°54' E 010°42'0 0.0
2014-Jul-25 08:30N 59°54' E 010°42'0 0.0
2014-Jul-25 07:33N 59°54' E 010°42'0 0.0
2014-Jul-25 06:33N 59°54' E 010°42'0 0.0
2014-Jul-25 05:18N 59°54' E 010°42'0 0.0
2014-Jul-25 04:33N 59°54' E 010°42'0 0.0
2014-Jul-25 03:27N 59°54' E 010°42'0 0.0
2014-Jul-25 02:33N 59°54' E 010°42'0 0.0
2014-Jul-25 01:18N 59°54' E 010°42'0 0.0
2014-Jul-25 00:27N 59°54' E 010°42'0 0.0
2014-Jul-24 23:21N 59°54' E 010°42'0 0.0
2014-Jul-24 22:22N 59°54' E 010°42'0 0.0
2014-Jul-24 21:21N 59°54' E 010°42'0 0.0
2014-Jul-24 20:34N 59°54' E 010°42'0 0.0
2014-Jul-24 18:21N 59°54' E 010°42'0 0.0
2014-Jul-24 17:27N 59°54' E 010°42'0 0.0
2014-Jul-24 16:33N 59°54' E 010°42'0 0.0
2014-Jul-24 15:33N 59°54' E 010°42'0 0.0
2014-Jul-24 14:18N 59°54' E 010°42'0 0.0
2014-Jul-24 13:33N 59°54' E 010°42'0 0.0
2014-Jul-24 12:30N 59°54' E 010°42'0 0.0
2014-Jul-24 11:21N 59°54' E 010°42'0 0.0
2014-Jul-24 10:33N 59°54' E 010°42'0 0.0
2014-Jul-24 09:24N 59°54' E 010°42'0 0.0
2014-Jul-24 08:33N 59°54' E 010°42'0 0.0
2014-Jul-24 07:30N 59°54' E 010°42'0 0.0
2014-Jul-24 06:30N 59°54' E 010°42'0 0.0
2014-Jul-24 05:30N 59°54' E 010°42'0 0.0
2014-Jul-24 04:33N 59°54' E 010°42'0 0.0
2014-Jul-24 03:33N 59°54' E 010°42'0 0.0
2014-Jul-24 02:21N 59°54' E 010°42'0 0.0
2014-Jul-24 01:24N 59°54' E 010°42'0 0.0
2014-Jul-24 00:30N 59°54' E 010°42'0 0.0
2014-Jul-23 23:24N 59°54' E 010°42'0 0.0
2014-Jul-23 22:27N 59°54' E 010°42'0 0.0
2014-Jul-23 21:33N 59°54' E 010°42'0 0.0
2014-Jul-23 20:18N 59°54' E 010°42'0 0.0
2014-Jul-23 19:21N 59°54' E 010°42'0 0.0
2014-Jul-23 18:27N 59°54' E 010°42'0 0.0
2014-Jul-23 17:33N 59°54' E 010°42'0 0.0
2014-Jul-23 16:33N 59°54' E 010°42'0 0.0
2014-Jul-23 15:33N 59°54' E 010°42'0 0.0
2014-Jul-23 14:33N 59°54' E 010°42'0 0.0
2014-Jul-23 13:27N 59°54' E 010°42'0 0.0
2014-Jul-23 12:33N 59°54' E 010°42'0 0.0
2014-Jul-23 11:27N 59°54' E 010°42'0 0.0
2014-Jul-23 10:30N 59°54' E 010°42'0 0.0
2014-Jul-23 09:28N 59°54' E 010°42'0 0.0
2014-Jul-23 08:27N 59°54' E 010°42'0 0.0
2014-Jul-23 07:27N 59°54' E 010°42'0 0.0
2014-Jul-23 06:30N 59°54' E 010°42'0 0.0
2014-Jul-23 05:27N 59°54' E 010°42'0 0.0
2014-Jul-23 04:27N 59°54' E 010°42'0 0.0
2014-Jul-23 03:33N 59°54' E 010°42'0 0.0
2014-Jul-23 02:33N 59°54' E 010°42'0 0.0
2014-Jul-23 01:12N 59°54' E 010°42'0 0.0
2014-Jul-23 00:27N 59°54' E 010°42'0 0.0
2014-Jul-22 23:30N 59°54' E 010°42'0 0.0
2014-Jul-22 22:18N 59°54' E 010°42'0 0.0
2014-Jul-22 21:30N 59°54' E 010°42'0 0.0
2014-Jul-22 20:09N 59°54' E 010°42'0 0.0
2014-Jul-22 19:33N 59°54' E 010°42'0 0.0
2014-Jul-22 18:28N 59°54' E 010°42'0 0.0
2014-Jul-22 17:33N 59°54' E 010°42'0 0.0
2014-Jul-22 15:27N 59°54' E 010°42'0 0.0
2014-Jul-22 14:24N 59°54' E 010°42'0 0.0
2014-Jul-22 13:33N 59°54' E 010°42'0 0.0
2014-Jul-22 12:33N 59°54' E 010°42'0 0.0
2014-Jul-22 11:24N 59°54' E 010°42'0 0.0
2014-Jul-22 10:33N 59°54' E 010°42'0 0.0
2014-Jul-22 09:15N 59°54' E 010°42'0 0.0
2014-Jul-22 08:33N 59°54' E 010°42'0 0.0
2014-Jul-22 07:21N 59°54' E 010°42'0 0.0
2014-Jul-22 06:30N 59°54' E 010°42'0 0.0
2014-Jul-22 05:18N 59°54' E 010°42'0 0.0
2014-Jul-22 04:33N 59°54' E 010°42'0 0.0
2014-Jul-22 03:21N 59°54' E 010°42'0 0.0
2014-Jul-22 02:30N 59°54' E 010°42'0 0.0
2014-Jul-22 01:27N 59°54' E 010°42'0 0.0
2014-Jul-22 00:27N 59°54' E 010°42'0 0.0
2014-Jul-21 23:18N 59°54' E 010°42'0 0.0
2014-Jul-21 22:33N 59°54' E 010°42'0 0.0
2014-Jul-21 21:33N 59°54' E 010°42'0 0.0
2014-Jul-21 20:33N 59°54' E 010°42'0 0.0
2014-Jul-21 20:09N 59°54' E 010°42'0 0.0
2014-Jul-21 19:33N 59°54' E 010°42'0 0.0
2014-Jul-21 18:30N 59°54' E 010°42'0 0.0
2014-Jul-21 17:31N 59°54' E 010°42'0 0.0
2014-Jul-21 16:33N 59°54' E 010°42'0 0.0
2014-Jul-21 15:09N 59°54' E 010°42'0 0.0
2014-Jul-21 14:12N 59°54' E 010°42'0 0.0
2014-Jul-21 13:24N 59°54' E 010°42'0 0.0
2014-Jul-21 12:33N 59°54' E 010°42'0 0.0
2014-Jul-21 11:33N 59°54' E 010°42'0 0.0
2014-Jul-21 10:21N 59°54' E 010°42'0 0.0
2014-Jul-21 09:27N 59°54' E 010°42'0 0.0
2014-Jul-21 08:27N 59°54' E 010°42'0 0.0
2014-Jul-21 07:21N 59°54' E 010°42'0 0.0
2014-Jul-21 06:33N 59°54' E 010°42'0 0.0
2014-Jul-21 05:33N 59°54' E 010°42'0 0.0
2014-Jul-21 04:33N 59°54' E 010°42'0 0.0
2014-Jul-21 03:33N 59°54' E 010°42'0 0.0
2014-Jul-21 02:30N 59°54' E 010°42'0 0.0
2014-Jul-21 01:30N 59°54' E 010°42'0 0.0
2014-Jul-21 00:12N 59°54' E 010°42'0 0.0
2014-Jul-20 23:30N 59°54' E 010°42'0 0.0
2014-Jul-20 22:24N 59°54' E 010°42'0 0.0
2014-Jul-20 21:33N 59°54' E 010°42'0 0.0
2014-Jul-20 20:33N 59°54' E 010°42'0 0.0
2014-Jul-20 19:33N 59°54' E 010°42'0 0.0
2014-Jul-20 18:30N 59°54' E 010°42'0 0.0
2014-Jul-20 17:33N 59°54' E 010°42'0 0.0
2014-Jul-20 16:33N 59°54' E 010°42'0 0.0
2014-Jul-20 15:33N 59°54' E 010°42'0 0.0
2014-Jul-20 14:24N 59°54' E 010°42'0 0.0
2014-Jul-20 13:27N 59°54' E 010°42'0 0.0
2014-Jul-20 12:33N 59°54' E 010°42'0 0.0
2014-Jul-20 11:30N 59°54' E 010°42'0 0.0
2014-Jul-20 10:27N 59°54' E 010°42'0 0.0
2014-Jul-20 09:33N 59°54' E 010°42'1 1.4
2014-Jul-20 08:33N 59°54' E 010°45'0 0.1
2014-Jul-20 07:12N 59°54' E 010°45'0 0.0
2014-Jul-20 06:33N 59°54' E 010°45'0 0.0
2014-Jul-20 05:30N 59°54' E 010°45'0 0.0
2014-Jul-20 04:33N 59°54' E 010°45'0 0.0
2014-Jul-20 03:33N 59°54' E 010°45'0 0.0
2014-Jul-20 02:30N 59°54' E 010°45'0 0.0
2014-Jul-20 01:30N 59°54' E 010°45'0 0.0
2014-Jul-20 00:27N 59°54' E 010°45'0 0.0
2014-Jul-19 23:33N 59°54' E 010°45'0 0.0
2014-Jul-19 22:33N 59°54' E 010°45'0 0.0
2014-Jul-19 21:30N 59°54' E 010°45'0 0.0
2014-Jul-19 20:30N 59°54' E 010°45'0 0.0
2014-Jul-19 19:24N 59°54' E 010°45'0 0.0
2014-Jul-19 18:24N 59°54' E 010°45'0 0.0
2014-Jul-19 17:30N 59°54' E 010°45'0 0.0
2014-Jul-19 16:24N 59°54' E 010°45'0 0.0
2014-Jul-19 15:33N 59°54' E 010°45'0 0.0
2014-Jul-19 14:24N 59°54' E 010°45'0 0.0
2014-Jul-19 13:24N 59°54' E 010°45'  
Track history (hours):
 
Tides and Currents Weather Stations Pressure Air Temp Water Temp Dewpoint Dewpoint Depression Visibility Wind Speed Wind Dir Waves Ship Positions

Svanen (Norway)

Ship's website: http://www.svanen.no/english/english.php1

Last reported at 2014-Jul-29 12:33 UTC. Time now 2014-Jul-29 12:53 UTC.
Position N 59°05' E 010°22'.

Length 27 m.

Type: Sailing vessel. MMSI: 259173000.

Date/timePositionNaut miles runAvg speedWind from/ knotsBaromVisibWave heightAir tempDewpointWater temp
2014-Jul-29 12:33N 59°05' E 010°22'5 5.5
2014-Jul-29 11:33N 59°10' E 010°24'5 4.8
2014-Jul-29 10:33N 59°14' E 010°30'6 6.0
2014-Jul-29 09:33N 59°20' E 010°32'7 7.0
2014-Jul-29 08:33N 59°27' E 010°29'1 0.1
2014-Jul-28 21:33N 59°26' E 010°29'0 0.0
2014-Jul-28 18:21N 59°26' E 010°29'0 0.0
2014-Jul-28 17:10N 59°26' E 010°29'0 0.3
2014-Jul-28 15:33N 59°26' E 010°29'6 5.7
2014-Jul-28 14:33N 59°31' E 010°34'22 5.6
2014-Jul-28 10:32N 59°53' E 010°40'1 1.4
2014-Jul-28 09:27N 59°54' E 010°42'0 0.0
2014-Jul-28 08:30N 59°54' E 010°42'0 0.0
2014-Jul-28 07:24N 59°54' E 010°42'0 0.0
2014-Jul-28 06:33N 59°54' E 010°42'0 0.0
2014-Jul-28 05:33N 59°54' E 010°42'0 0.0
2014-Jul-28 04:33N 59°54' E 010°42'0 0.0
2014-Jul-28 03:18N 59°54' E 010°42'0 0.0
2014-Jul-28 02:30N 59°54' E 010°42'0 0.0
2014-Jul-28 01:30N 59°54' E 010°42'0 0.0
2014-Jul-28 00:24N 59°54' E 010°42'0 0.0
2014-Jul-27 23:30N 59°54' E 010°42'0 0.0
2014-Jul-27 22:30N 59°54' E 010°42'0 0.0
2014-Jul-27 21:33N 59°54' E 010°42'0 0.0
2014-Jul-27 20:33N 59°54' E 010°42'0 0.0
2014-Jul-27 19:33N 59°54' E 010°42'0 0.0
2014-Jul-27 18:33N 59°54' E 010°42'0 0.0
2014-Jul-27 17:21N 59°54' E 010°42'0 0.0
2014-Jul-27 16:33N 59°54' E 010°42'0 0.0
2014-Jul-27 15:27N 59°54' E 010°42'0 0.0
2014-Jul-27 14:33N 59°54' E 010°42'0 0.0
2014-Jul-27 13:06N 59°54' E 010°42'0 0.0
2014-Jul-27 12:33N 59°54' E 010°42'0 0.0
2014-Jul-27 11:33N 59°54' E 010°42'0 0.0
2014-Jul-27 10:27N 59°54' E 010°42'0 0.0
2014-Jul-27 09:18N 59°54' E 010°42'0 0.0
2014-Jul-27 08:24N 59°54' E 010°42'0 0.0
2014-Jul-27 06:21N 59°54' E 010°42'0 0.0
2014-Jul-27 05:33N 59°54' E 010°42'0 0.0
2014-Jul-27 04:15N 59°54' E 010°42'0 0.0
2014-Jul-27 03:30N 59°54' E 010°42'0 0.0
2014-Jul-27 02:27N 59°54' E 010°42'0 0.0
2014-Jul-27 01:30N 59°54' E 010°42'0 0.0
2014-Jul-27 00:30N 59°54' E 010°42'0 0.0
2014-Jul-26 23:24N 59°54' E 010°42'0 0.0
2014-Jul-26 22:33N 59°54' E 010°42'0 0.0
2014-Jul-26 21:33N 59°54' E 010°42'0 0.0
2014-Jul-26 20:21N 59°54' E 010°42'0 0.0
2014-Jul-26 19:27N 59°54' E 010°42'0 0.0
2014-Jul-26 18:33N 59°54' E 010°42'0 0.0
2014-Jul-26 17:27N 59°54' E 010°42'0 0.0
2014-Jul-26 16:33N 59°54' E 010°42'0 0.0
2014-Jul-26 15:33N 59°54' E 010°42'0 0.0
2014-Jul-26 14:30N 59°54' E 010°42'0 0.0
2014-Jul-26 13:33N 59°54' E 010°42'0 0.0
2014-Jul-26 12:21N 59°54' E 010°42'0 0.0
2014-Jul-26 11:24N 59°54' E 010°42'0 0.0
2014-Jul-26 10:33N 59°54' E 010°42'0 0.0
2014-Jul-26 09:27N 59°54' E 010°42'0 0.0
2014-Jul-26 08:09N 59°54' E 010°42'0 0.0
2014-Jul-26 07:33N 59°54' E 010°42'0 0.0
2014-Jul-26 06:30N 59°54' E 010°42'0 0.0
2014-Jul-26 05:34N 59°54' E 010°42'0 0.0
2014-Jul-26 04:30N 59°54' E 010°42'0 0.0
2014-Jul-26 03:34N 59°54' E 010°42'0 0.0
2014-Jul-26 02:21N 59°54' E 010°42'0 0.0
2014-Jul-26 01:27N 59°54' E 010°42'0 0.0
2014-Jul-26 00:33N 59°54' E 010°42'0 0.0
2014-Jul-25 23:30N 59°54' E 010°42'0 0.0
2014-Jul-25 22:27N 59°54' E 010°42'0 0.0
2014-Jul-25 21:15N 59°54' E 010°42'0 0.0
2014-Jul-25 20:30N 59°54' E 010°42'0 0.0
2014-Jul-25 19:33N 59°54' E 010°42'0 0.0
2014-Jul-25 18:24N 59°54' E 010°42'0 0.0
2014-Jul-25 17:21N 59°54' E 010°42'0 0.0
2014-Jul-25 16:30N 59°54' E 010°42'0 0.0
2014-Jul-25 15:33N 59°54' E 010°42'0 0.0
2014-Jul-25 14:33N 59°54' E 010°42'0 0.0
2014-Jul-25 13:33N 59°54' E 010°42'0 0.0
2014-Jul-25 12:27N 59°54' E 010°42'0 0.0
2014-Jul-25 11:12N 59°54' E 010°42'0 0.0
2014-Jul-25 10:30N 59°54' E 010°42'0 0.0
2014-Jul-25 09:27N 59°54' E 010°42'0 0.0
2014-Jul-25 08:30N 59°54' E 010°42'0 0.0
2014-Jul-25 07:33N 59°54' E 010°42'0 0.0
2014-Jul-25 06:33N 59°54' E 010°42'0 0.0
2014-Jul-25 05:18N 59°54' E 010°42'0 0.0
2014-Jul-25 04:33N 59°54' E 010°42'0 0.0
2014-Jul-25 03:27N 59°54' E 010°42'0 0.0
2014-Jul-25 02:33N 59°54' E 010°42'0 0.0
2014-Jul-25 01:18N 59°54' E 010°42'0 0.0
2014-Jul-25 00:27N 59°54' E 010°42'0 0.0
2014-Jul-24 23:21N 59°54' E 010°42'0 0.0
2014-Jul-24 22:22N 59°54' E 010°42'0 0.0
2014-Jul-24 21:21N 59°54' E 010°42'0 0.0
2014-Jul-24 20:34N 59°54' E 010°42'0 0.0
2014-Jul-24 18:21N 59°54' E 010°42'0 0.0
2014-Jul-24 17:27N 59°54' E 010°42'0 0.0
2014-Jul-24 16:33N 59°54' E 010°42'0 0.0
2014-Jul-24 15:33N 59°54' E 010°42'0 0.0
2014-Jul-24 14:18N 59°54' E 010°42'0 0.0
2014-Jul-24 13:33N 59°54' E 010°42'0 0.0
2014-Jul-24 12:30N 59°54' E 010°42'0 0.0
2014-Jul-24 11:21N 59°54' E 010°42'0 0.0
2014-Jul-24 10:33N 59°54' E 010°42'0 0.0
2014-Jul-24 09:24N 59°54' E 010°42'0 0.0
2014-Jul-24 08:33N 59°54' E 010°42'0 0.0
2014-Jul-24 07:30N 59°54' E 010°42'0 0.0
2014-Jul-24 06:30N 59°54' E 010°42'0 0.0
2014-Jul-24 05:30N 59°54' E 010°42'0 0.0
2014-Jul-24 04:33N 59°54' E 010°42'0 0.0
2014-Jul-24 03:33N 59°54' E 010°42'0 0.0
2014-Jul-24 02:21N 59°54' E 010°42'0 0.0
2014-Jul-24 01:24N 59°54' E 010°42'0 0.0
2014-Jul-24 00:30N 59°54' E 010°42'0 0.0
2014-Jul-23 23:24N 59°54' E 010°42'0 0.0
2014-Jul-23 22:27N 59°54' E 010°42'0 0.0
2014-Jul-23 21:33N 59°54' E 010°42'0 0.0
2014-Jul-23 20:18N 59°54' E 010°42'0 0.0
2014-Jul-23 19:21N 59°54' E 010°42'0 0.0
2014-Jul-23 18:27N 59°54' E 010°42'0 0.0
2014-Jul-23 17:33N 59°54' E 010°42'0 0.0
2014-Jul-23 16:33N 59°54' E 010°42'0 0.0
2014-Jul-23 15:33N 59°54' E 010°42'0 0.0
2014-Jul-23 14:33N 59°54' E 010°42'0 0.0
2014-Jul-23 13:27N 59°54' E 010°42'0 0.0
2014-Jul-23 12:33N 59°54' E 010°42'0 0.0
2014-Jul-23 11:27N 59°54' E 010°42'0 0.0
2014-Jul-23 10:30N 59°54' E 010°42'0 0.0
2014-Jul-23 09:28N 59°54' E 010°42'0 0.0
2014-Jul-23 08:27N 59°54' E 010°42'0 0.0
2014-Jul-23 07:27N 59°54' E 010°42'0 0.0
2014-Jul-23 06:30N 59°54' E 010°42'0 0.0
2014-Jul-23 05:27N 59°54' E 010°42'0 0.0
2014-Jul-23 04:27N 59°54' E 010°42'0 0.0
2014-Jul-23 03:33N 59°54' E 010°42'0 0.0
2014-Jul-23 02:33N 59°54' E 010°42'0 0.0
2014-Jul-23 01:12N 59°54' E 010°42'0 0.0
2014-Jul-23 00:27N 59°54' E 010°42'0 0.0
2014-Jul-22 23:30N 59°54' E 010°42'0 0.0
2014-Jul-22 22:18N 59°54' E 010°42'0 0.0
2014-Jul-22 21:30N 59°54' E 010°42'0 0.0
2014-Jul-22 20:09N 59°54' E 010°42'0 0.0
2014-Jul-22 19:33N 59°54' E 010°42'0 0.0
2014-Jul-22 18:28N 59°54' E 010°42'0 0.0
2014-Jul-22 17:33N 59°54' E 010°42'0 0.0
2014-Jul-22 15:27N 59°54' E 010°42'0 0.0
2014-Jul-22 14:24N 59°54' E 010°42'0 0.0
2014-Jul-22 13:33N 59°54' E 010°42'0 0.0
2014-Jul-22 12:33N 59°54' E 010°42'0 0.0
2014-Jul-22 11:24N 59°54' E 010°42'0 0.0
2014-Jul-22 10:33N 59°54' E 010°42'0 0.0
2014-Jul-22 09:15N 59°54' E 010°42'0 0.0
2014-Jul-22 08:33N 59°54' E 010°42'0 0.0
2014-Jul-22 07:21N 59°54' E 010°42'0 0.0
2014-Jul-22 06:30N 59°54' E 010°42'0 0.0
2014-Jul-22 05:18N 59°54' E 010°42'0 0.0
2014-Jul-22 04:33N 59°54' E 010°42'0 0.0
2014-Jul-22 03:21N 59°54' E 010°42'0 0.0
2014-Jul-22 02:30N 59°54' E 010°42'0 0.0
2014-Jul-22 01:27N 59°54' E 010°42'0 0.0
2014-Jul-22 00:27N 59°54' E 010°42'0 0.0
2014-Jul-21 23:18N 59°54' E 010°42'0 0.0
2014-Jul-21 22:33N 59°54' E 010°42'0 0.0
2014-Jul-21 21:33N 59°54' E 010°42'0 0.0
2014-Jul-21 20:33N 59°54' E 010°42'0 0.0
2014-Jul-21 20:09N 59°54' E 010°42'0 0.0
2014-Jul-21 19:33N 59°54' E 010°42'0 0.0
2014-Jul-21 18:30N 59°54' E 010°42'0 0.0
2014-Jul-21 17:31N 59°54' E 010°42'0 0.0
2014-Jul-21 16:33N 59°54' E 010°42'0 0.0
2014-Jul-21 15:09N 59°54' E 010°42'0 0.0
2014-Jul-21 14:12N 59°54' E 010°42'0 0.0
2014-Jul-21 13:24N 59°54' E 010°42'0 0.0
2014-Jul-21 12:33N 59°54' E 010°42'0 0.0
2014-Jul-21 11:33N 59°54' E 010°42'0 0.0
2014-Jul-21 10:21N 59°54' E 010°42'0 0.0
2014-Jul-21 09:27N 59°54' E 010°42'0 0.0
2014-Jul-21 08:27N 59°54' E 010°42'0 0.0
2014-Jul-21 07:21N 59°54' E 010°42'0 0.0
2014-Jul-21 06:33N 59°54' E 010°42'0 0.0
2014-Jul-21 05:33N 59°54' E 010°42'0 0.0
2014-Jul-21 04:33N 59°54' E 010°42'0 0.0
2014-Jul-21 03:33N 59°54' E 010°42'0 0.0
2014-Jul-21 02:30N 59°54' E 010°42'0 0.0
2014-Jul-21 01:30N 59°54' E 010°42'0 0.0
2014-Jul-21 00:12N 59°54' E 010°42'0 0.0
2014-Jul-20 23:30N 59°54' E 010°42'0 0.0
2014-Jul-20 22:24N 59°54' E 010°42'0 0.0
2014-Jul-20 21:33N 59°54' E 010°42'0 0.0
2014-Jul-20 20:33N 59°54' E 010°42'0 0.0
2014-Jul-20 19:33N 59°54' E 010°42'0 0.0
2014-Jul-20 18:30N 59°54' E 010°42'0 0.0
2014-Jul-20 17:33N 59°54' E 010°42'0 0.0
2014-Jul-20 16:33N 59°54' E 010°42'0 0.0
2014-Jul-20 15:33N 59°54' E 010°42'0 0.0
2014-Jul-20 14:24N 59°54' E 010°42'0 0.0
2014-Jul-20 13:27N 59°54' E 010°42'0 0.0
2014-Jul-20 12:33N 59°54' E 010°42'0 0.0
2014-Jul-20 11:30N 59°54' E 010°42'0 0.0
2014-Jul-20 10:27N 59°54' E 010°42'0 0.0
2014-Jul-20 09:33N 59°54' E 010°42'1 1.4
2014-Jul-20 08:33N 59°54' E 010°45'0 0.1
2014-Jul-20 07:12N 59°54' E 010°45'0 0.0
2014-Jul-20 06:33N 59°54' E 010°45'0 0.0
2014-Jul-20 05:30N 59°54' E 010°45'0 0.0
2014-Jul-20 04:33N 59°54' E 010°45'0 0.0
2014-Jul-20 03:33N 59°54' E 010°45'0 0.0
2014-Jul-20 02:30N 59°54' E 010°45'0 0.0
2014-Jul-20 01:30N 59°54' E 010°45'0 0.0
2014-Jul-20 00:27N 59°54' E 010°45'0 0.0
2014-Jul-19 23:33N 59°54' E 010°45'0 0.0
2014-Jul-19 22:33N 59°54' E 010°45'0 0.0
2014-Jul-19 21:30N 59°54' E 010°45'0 0.0
2014-Jul-19 20:30N 59°54' E 010°45'0 0.0
2014-Jul-19 19:24N 59°54' E 010°45'0 0.0
2014-Jul-19 18:24N 59°54' E 010°45'0 0.0
2014-Jul-19 17:30N 59°54' E 010°45'0 0.0
2014-Jul-19 16:24N 59°54' E 010°45'0 0.0
2014-Jul-19 15:33N 59°54' E 010°45'0 0.0
2014-Jul-19 14:24N 59°54' E 010°45'0 0.0
2014-Jul-19 13:24N 59°54' E 010°45'  

Dump ship's entire track history